sensor_id;sensor_type;location;lat;lon;timestamp;temperature;humidity
6879;DHT22;3478;51.462;7.338;2023-12-20T00:02:27;7.40;99.90
6879;DHT22;3478;51.462;7.338;2023-12-20T00:07:29;7.40;99.90
6879;DHT22;3478;51.462;7.338;2023-12-20T00:12:31;7.40;99.90
6879;DHT22;3478;51.462;7.338;2023-12-20T00:17:34;7.40;99.90
6879;DHT22;3478;51.462;7.338;2023-12-20T00:22:36;7.40;99.90
6879;DHT22;3478;51.462;7.338;2023-12-20T00:27:38;7.40;99.90
6879;DHT22;3478;51.462;7.338;2023-12-20T00:32:41;7.30;99.90
6879;DHT22;3478;51.462;7.338;2023-12-20T00:37:46;7.30;99.90
6879;DHT22;3478;51.462;7.338;2023-12-20T00:42:48;7.30;99.90
6879;DHT22;3478;51.462;7.338;2023-12-20T00:47:51;7.30;99.90
6879;DHT22;3478;51.462;7.338;2023-12-20T00:52:53;7.20;99.90
6879;DHT22;3478;51.462;7.338;2023-12-20T00:57:56;7.20;99.90
6879;DHT22;3478;51.462;7.338;2023-12-20T01:03:01;7.10;99.90
6879;DHT22;3478;51.462;7.338;2023-12-20T01:08:03;7.00;99.90
6879;DHT22;3478;51.462;7.338;2023-12-20T01:13:05;7.00;99.90
6879;DHT22;3478;51.462;7.338;2023-12-20T01:18:08;6.90;99.90
6879;DHT22;3478;51.462;7.338;2023-12-20T01:23:10;6.90;99.90
6879;DHT22;3478;51.462;7.338;2023-12-20T01:28:12;6.90;99.90
6879;DHT22;3478;51.462;7.338;2023-12-20T01:33:15;6.90;99.90
6879;DHT22;3478;51.462;7.338;2023-12-20T01:38:17;6.90;99.90
6879;DHT22;3478;51.462;7.338;2023-12-20T01:43:20;7.00;99.90
6879;DHT22;3478;51.462;7.338;2023-12-20T01:48:25;6.90;99.90
6879;DHT22;3478;51.462;7.338;2023-12-20T01:53:27;6.90;99.90
6879;DHT22;3478;51.462;7.338;2023-12-20T01:58:30;6.90;99.90
6879;DHT22;3478;51.462;7.338;2023-12-20T02:03:33;6.80;99.90
6879;DHT22;3478;51.462;7.338;2023-12-20T02:08:37;6.80;99.90
6879;DHT22;3478;51.462;7.338;2023-12-20T02:13:38;6.80;99.90
6879;DHT22;3478;51.462;7.338;2023-12-20T02:18:43;6.70;99.90
6879;DHT22;3478;51.462;7.338;2023-12-20T02:23:46;6.70;99.90
6879;DHT22;3478;51.462;7.338;2023-12-20T02:28:48;6.60;99.90
6879;DHT22;3478;51.462;7.338;2023-12-20T02:33:50;6.50;99.90
6879;DHT22;3478;51.462;7.338;2023-12-20T02:38:53;6.40;99.90
6879;DHT22;3478;51.462;7.338;2023-12-20T02:43:55;6.30;99.90
6879;DHT22;3478;51.462;7.338;2023-12-20T02:48:57;6.30;99.90
6879;DHT22;3478;51.462;7.338;2023-12-20T02:54:00;6.40;99.90
6879;DHT22;3478;51.462;7.338;2023-12-20T02:59:02;6.50;99.90
6879;DHT22;3478;51.462;7.338;2023-12-20T03:04:06;6.40;99.90
6879;DHT22;3478;51.462;7.338;2023-12-20T03:09:09;6.50;99.90
6879;DHT22;3478;51.462;7.338;2023-12-20T03:14:11;6.50;99.90
6879;DHT22;3478;51.462;7.338;2023-12-20T03:19:13;6.50;99.90
6879;DHT22;3478;51.462;7.338;2023-12-20T03:24:16;6.40;99.90
6879;DHT22;3478;51.462;7.338;2023-12-20T03:29:18;6.40;99.90
6879;DHT22;3478;51.462;7.338;2023-12-20T03:34:20;6.40;99.90
6879;DHT22;3478;51.462;7.338;2023-12-20T03:39:23;6.40;99.90
6879;DHT22;3478;51.462;7.338;2023-12-20T03:44:24;6.30;99.90
6879;DHT22;3478;51.462;7.338;2023-12-20T03:49:26;6.30;99.90
6879;DHT22;3478;51.462;7.338;2023-12-20T03:54:30;6.20;99.90
6879;DHT22;3478;51.462;7.338;2023-12-20T03:59:34;6.10;99.90
6879;DHT22;3478;51.462;7.338;2023-12-20T04:04:36;6.10;99.90
6879;DHT22;3478;51.462;7.338;2023-12-20T04:09:40;6.10;99.90
6879;DHT22;3478;51.462;7.338;2023-12-20T04:14:42;6.10;99.90
6879;DHT22;3478;51.462;7.338;2023-12-20T04:19:44;6.00;99.90
6879;DHT22;3478;51.462;7.338;2023-12-20T04:24:47;6.00;99.90
6879;DHT22;3478;51.462;7.338;2023-12-20T04:29:49;5.90;99.90
6879;DHT22;3478;51.462;7.338;2023-12-20T04:34:51;5.90;99.90
6879;DHT22;3478;51.462;7.338;2023-12-20T04:39:54;6.00;99.90
6879;DHT22;3478;51.462;7.338;2023-12-20T04:44:56;6.00;99.90
6879;DHT22;3478;51.462;7.338;2023-12-20T04:49:58;6.00;99.90
6879;DHT22;3478;51.462;7.338;2023-12-20T04:55:01;6.00;99.90
6879;DHT22;3478;51.462;7.338;2023-12-20T05:00:04;6.00;99.90
6879;DHT22;3478;51.462;7.338;2023-12-20T05:05:06;6.00;99.90
6879;DHT22;3478;51.462;7.338;2023-12-20T05:10:10;6.00;99.90
6879;DHT22;3478;51.462;7.338;2023-12-20T05:15:12;6.00;99.90
6879;DHT22;3478;51.462;7.338;2023-12-20T05:20:14;6.00;99.90
6879;DHT22;3478;51.462;7.338;2023-12-20T05:25:18;6.00;99.90
6879;DHT22;3478;51.462;7.338;2023-12-20T05:30:19;6.00;99.90
6879;DHT22;3478;51.462;7.338;2023-12-20T05:35:21;6.00;99.90
6879;DHT22;3478;51.462;7.338;2023-12-20T05:40:25;6.00;99.90
6879;DHT22;3478;51.462;7.338;2023-12-20T05:45:27;6.00;99.90
6879;DHT22;3478;51.462;7.338;2023-12-20T05:50:29;6.00;99.90
6879;DHT22;3478;51.462;7.338;2023-12-20T05:55:32;6.00;99.90
6879;DHT22;3478;51.462;7.338;2023-12-20T06:00:34;6.00;99.90
6879;DHT22;3478;51.462;7.338;2023-12-20T06:05:36;5.90;99.90
6879;DHT22;3478;51.462;7.338;2023-12-20T06:10:40;5.90;99.90
6879;DHT22;3478;51.462;7.338;2023-12-20T06:15:41;5.90;99.90
6879;DHT22;3478;51.462;7.338;2023-12-20T06:20:43;5.90;99.90
6879;DHT22;3478;51.462;7.338;2023-12-20T06:25:46;5.80;99.90
6879;DHT22;3478;51.462;7.338;2023-12-20T06:30:48;5.80;99.90
6879;DHT22;3478;51.462;7.338;2023-12-20T06:35:53;5.80;99.90
6879;DHT22;3478;51.462;7.338;2023-12-20T06:40:56;5.80;99.90
6879;DHT22;3478;51.462;7.338;2023-12-20T06:46:00;5.80;99.90
6879;DHT22;3478;51.462;7.338;2023-12-20T06:51:02;5.90;99.90
6879;DHT22;3478;51.462;7.338;2023-12-20T06:56:06;5.90;99.90
6879;DHT22;3478;51.462;7.338;2023-12-20T07:01:11;5.80;99.90
6879;DHT22;3478;51.462;7.338;2023-12-20T07:06:13;5.80;99.90
6879;DHT22;3478;51.462;7.338;2023-12-20T07:11:18;5.90;99.90
6879;DHT22;3478;51.462;7.338;2023-12-20T07:16:20;5.90;99.90
6879;DHT22;3478;51.462;7.338;2023-12-20T07:21:23;5.90;99.90
6879;DHT22;3478;51.462;7.338;2023-12-20T07:26:26;5.90;99.90
6879;DHT22;3478;51.462;7.338;2023-12-20T07:31:28;5.90;99.90
6879;DHT22;3478;51.462;7.338;2023-12-20T07:36:30;5.90;99.90
6879;DHT22;3478;51.462;7.338;2023-12-20T07:41:33;5.90;99.90
6879;DHT22;3478;51.462;7.338;2023-12-20T07:46:35;5.90;99.90
6879;DHT22;3478;51.462;7.338;2023-12-20T07:51:37;6.00;99.90
6879;DHT22;3478;51.462;7.338;2023-12-20T07:56:40;6.00;99.90
6879;DHT22;3478;51.462;7.338;2023-12-20T08:01:42;6.00;99.90
6879;DHT22;3478;51.462;7.338;2023-12-20T08:06:43;6.00;99.90
6879;DHT22;3478;51.462;7.338;2023-12-20T08:11:47;6.10;99.90
6879;DHT22;3478;51.462;7.338;2023-12-20T08:16:49;6.10;99.90
6879;DHT22;3478;51.462;7.338;2023-12-20T08:21:51;6.10;99.90
6879;DHT22;3478;51.462;7.338;2023-12-20T08:26:54;6.10;99.90
6879;DHT22;3478;51.462;7.338;2023-12-20T08:31:56;6.10;99.90
6879;DHT22;3478;51.462;7.338;2023-12-20T08:36:58;6.10;99.90
6879;DHT22;3478;51.462;7.338;2023-12-20T08:42:01;6.20;99.90
6879;DHT22;3478;51.462;7.338;2023-12-20T08:47:03;6.20;99.90
6879;DHT22;3478;51.462;7.338;2023-12-20T08:52:05;6.20;99.90
6879;DHT22;3478;51.462;7.338;2023-12-20T08:57:09;6.20;99.90
6879;DHT22;3478;51.462;7.338;2023-12-20T09:02:11;6.30;99.90
6879;DHT22;3478;51.462;7.338;2023-12-20T09:07:22;6.30;99.90
6879;DHT22;3478;51.462;7.338;2023-12-20T09:12:26;6.30;99.90
6879;DHT22;3478;51.462;7.338;2023-12-20T09:17:28;6.30;99.90
6879;DHT22;3478;51.462;7.338;2023-12-20T09:22:30;6.30;99.90
6879;DHT22;3478;51.462;7.338;2023-12-20T09:27:33;6.30;99.90
6879;DHT22;3478;51.462;7.338;2023-12-20T09:32:35;6.30;99.90
6879;DHT22;3478;51.462;7.338;2023-12-20T09:37:36;6.40;99.90
6879;DHT22;3478;51.462;7.338;2023-12-20T09:42:47;6.40;99.90
6879;DHT22;3478;51.462;7.338;2023-12-20T09:47:52;6.40;99.90
6879;DHT22;3478;51.462;7.338;2023-12-20T09:52:56;6.40;99.90
6879;DHT22;3478;51.462;7.338;2023-12-20T09:58:01;6.40;99.90
6879;DHT22;3478;51.462;7.338;2023-12-20T10:03:04;6.40;99.90
6879;DHT22;3478;51.462;7.338;2023-12-20T10:08:07;6.40;99.90
6879;DHT22;3478;51.462;7.338;2023-12-20T10:13:12;6.50;99.90
6879;DHT22;3478;51.462;7.338;2023-12-20T10:18:15;6.50;99.90
6879;DHT22;3478;51.462;7.338;2023-12-20T10:23:17;6.50;99.90
6879;DHT22;3478;51.462;7.338;2023-12-20T10:28:20;6.50;99.90
6879;DHT22;3478;51.462;7.338;2023-12-20T10:33:25;6.50;99.90
6879;DHT22;3478;51.462;7.338;2023-12-20T10:38:27;6.60;99.90
6879;DHT22;3478;51.462;7.338;2023-12-20T10:43:33;6.50;99.90
6879;DHT22;3478;51.462;7.338;2023-12-20T10:48:35;6.60;99.90
6879;DHT22;3478;51.462;7.338;2023-12-20T10:53:39;6.50;99.90
6879;DHT22;3478;51.462;7.338;2023-12-20T10:58:43;6.50;99.90
6879;DHT22;3478;51.462;7.338;2023-12-20T11:03:49;6.50;99.90
6879;DHT22;3478;51.462;7.338;2023-12-20T11:08:55;6.50;99.90
6879;DHT22;3478;51.462;7.338;2023-12-20T11:14:15;6.50;99.90
6879;DHT22;3478;51.462;7.338;2023-12-20T11:19:19;6.60;99.90
6879;DHT22;3478;51.462;7.338;2023-12-20T11:24:22;6.50;99.90
6879;DHT22;3478;51.462;7.338;2023-12-20T11:29:33;6.60;99.90
6879;DHT22;3478;51.462;7.338;2023-12-20T11:34:36;6.60;99.90
6879;DHT22;3478;51.462;7.338;2023-12-20T11:39:38;6.60;99.90
6879;DHT22;3478;51.462;7.338;2023-12-20T11:44:42;6.70;99.90
6879;DHT22;3478;51.462;7.338;2023-12-20T11:49:47;6.70;99.90
6879;DHT22;3478;51.462;7.338;2023-12-20T11:54:49;6.70;99.90
6879;DHT22;3478;51.462;7.338;2023-12-20T11:59:53;6.80;99.90
6879;DHT22;3478;51.462;7.338;2023-12-20T12:04:55;6.80;99.90
6879;DHT22;3478;51.462;7.338;2023-12-20T12:09:57;6.70;99.90
6879;DHT22;3478;51.462;7.338;2023-12-20T12:15:00;6.70;99.90
6879;DHT22;3478;51.462;7.338;2023-12-20T12:20:06;6.60;99.90
6879;DHT22;3478;51.462;7.338;2023-12-20T12:25:13;6.60;99.90
6879;DHT22;3478;51.462;7.338;2023-12-20T12:30:16;6.60;99.90
6879;DHT22;3478;51.462;7.338;2023-12-20T12:35:19;6.60;99.90
6879;DHT22;3478;51.462;7.338;2023-12-20T12:40:21;6.60;99.90
6879;DHT22;3478;51.462;7.338;2023-12-20T12:45:24;6.70;99.90
6879;DHT22;3478;51.462;7.338;2023-12-20T12:50:27;6.60;99.90
6879;DHT22;3478;51.462;7.338;2023-12-20T12:55:29;6.60;99.90
6879;DHT22;3478;51.462;7.338;2023-12-20T13:00:32;6.50;99.90
6879;DHT22;3478;51.462;7.338;2023-12-20T13:05:34;6.60;99.90
6879;DHT22;3478;51.462;7.338;2023-12-20T13:10:36;6.70;99.90
6879;DHT22;3478;51.462;7.338;2023-12-20T13:15:39;6.70;99.90
6879;DHT22;3478;51.462;7.338;2023-12-20T13:20:41;6.70;99.90
6879;DHT22;3478;51.462;7.338;2023-12-20T13:25:44;6.70;99.90
6879;DHT22;3478;51.462;7.338;2023-12-20T13:30:48;6.70;99.90
6879;DHT22;3478;51.462;7.338;2023-12-20T13:35:50;6.80;99.90
6879;DHT22;3478;51.462;7.338;2023-12-20T13:40:52;6.80;99.90
6879;DHT22;3478;51.462;7.338;2023-12-20T13:45:55;6.70;99.90
6879;DHT22;3478;51.462;7.338;2023-12-20T13:50:57;6.70;99.90
6879;DHT22;3478;51.462;7.338;2023-12-20T13:56:00;6.70;99.90
6879;DHT22;3478;51.462;7.338;2023-12-20T14:01:04;6.70;99.90
6879;DHT22;3478;51.462;7.338;2023-12-20T14:06:06;6.60;99.90
6879;DHT22;3478;51.462;7.338;2023-12-20T14:11:08;6.60;99.90
6879;DHT22;3478;51.462;7.338;2023-12-20T14:16:11;6.60;99.90
6879;DHT22;3478;51.462;7.338;2023-12-20T14:21:13;6.60;99.90
6879;DHT22;3478;51.462;7.338;2023-12-20T14:26:15;6.50;99.90
6879;DHT22;3478;51.462;7.338;2023-12-20T14:31:18;6.50;99.90
6879;DHT22;3478;51.462;7.338;2023-12-20T14:36:22;6.50;99.90
6879;DHT22;3478;51.462;7.338;2023-12-20T14:41:24;6.50;99.90
6879;DHT22;3478;51.462;7.338;2023-12-20T14:46:27;6.50;99.90
6879;DHT22;3478;51.462;7.338;2023-12-20T14:51:29;6.50;99.90
6879;DHT22;3478;51.462;7.338;2023-12-20T14:56:31;6.60;99.90
6879;DHT22;3478;51.462;7.338;2023-12-20T15:01:35;6.60;99.90
6879;DHT22;3478;51.462;7.338;2023-12-20T15:06:37;6.60;99.90
6879;DHT22;3478;51.462;7.338;2023-12-20T15:11:39;6.60;99.90
6879;DHT22;3478;51.462;7.338;2023-12-20T15:16:42;6.60;99.90
6879;DHT22;3478;51.462;7.338;2023-12-20T15:21:44;6.70;99.90
6879;DHT22;3478;51.462;7.338;2023-12-20T15:26:46;6.70;99.90
6879;DHT22;3478;51.462;7.338;2023-12-20T15:31:50;6.70;99.90
6879;DHT22;3478;51.462;7.338;2023-12-20T15:36:52;6.70;99.90
6879;DHT22;3478;51.462;7.338;2023-12-20T15:41:54;6.70;99.90
6879;DHT22;3478;51.462;7.338;2023-12-20T15:46:57;6.70;99.90
6879;DHT22;3478;51.462;7.338;2023-12-20T15:51:59;6.70;99.90
6879;DHT22;3478;51.462;7.338;2023-12-20T15:57:01;6.70;99.90
6879;DHT22;3478;51.462;7.338;2023-12-20T16:02:04;6.80;99.90
6879;DHT22;3478;51.462;7.338;2023-12-20T16:07:06;6.80;99.90
6879;DHT22;3478;51.462;7.338;2023-12-20T16:12:08;6.80;99.90
6879;DHT22;3478;51.462;7.338;2023-12-20T16:17:12;6.80;99.90
6879;DHT22;3478;51.462;7.338;2023-12-20T16:22:14;6.80;99.90
6879;DHT22;3478;51.462;7.338;2023-12-20T16:27:16;6.90;99.90
6879;DHT22;3478;51.462;7.338;2023-12-20T16:32:19;6.90;99.90
6879;DHT22;3478;51.462;7.338;2023-12-20T16:37:21;6.90;99.90
6879;DHT22;3478;51.462;7.338;2023-12-20T16:42:23;6.90;99.90
6879;DHT22;3478;51.462;7.338;2023-12-20T16:47:27;6.90;99.90
6879;DHT22;3478;51.462;7.338;2023-12-20T16:52:28;6.90;99.90
6879;DHT22;3478;51.462;7.338;2023-12-20T16:57:30;6.90;99.90
6879;DHT22;3478;51.462;7.338;2023-12-20T17:02:34;6.90;99.90
6879;DHT22;3478;51.462;7.338;2023-12-20T17:07:36;7.00;99.90
6879;DHT22;3478;51.462;7.338;2023-12-20T17:12:38;7.00;99.90
6879;DHT22;3478;51.462;7.338;2023-12-20T17:17:41;6.90;99.90
6879;DHT22;3478;51.462;7.338;2023-12-20T17:22:43;6.90;99.90
6879;DHT22;3478;51.462;7.338;2023-12-20T17:27:45;7.00;99.90
6879;DHT22;3478;51.462;7.338;2023-12-20T17:32:48;7.00;99.90
6879;DHT22;3478;51.462;7.338;2023-12-20T17:37:50;7.00;99.90
6879;DHT22;3478;51.462;7.338;2023-12-20T17:42:52;7.00;99.90
6879;DHT22;3478;51.462;7.338;2023-12-20T17:47:57;7.00;99.90
6879;DHT22;3478;51.462;7.338;2023-12-20T17:52:59;7.00;99.90
6879;DHT22;3478;51.462;7.338;2023-12-20T17:58:01;7.00;99.90
6879;DHT22;3478;51.462;7.338;2023-12-20T18:03:05;7.00;99.90
6879;DHT22;3478;51.462;7.338;2023-12-20T18:08:07;7.00;99.90
6879;DHT22;3478;51.462;7.338;2023-12-20T18:13:09;7.00;99.90
6879;DHT22;3478;51.462;7.338;2023-12-20T18:18:12;7.10;99.90
6879;DHT22;3478;51.462;7.338;2023-12-20T18:23:14;7.10;99.90
6879;DHT22;3478;51.462;7.338;2023-12-20T18:28:16;7.10;99.90
6879;DHT22;3478;51.462;7.338;2023-12-20T18:33:19;7.10;99.90
6879;DHT22;3478;51.462;7.338;2023-12-20T18:38:21;7.10;99.90
6879;DHT22;3478;51.462;7.338;2023-12-20T18:43:29;7.10;99.90
6879;DHT22;3478;51.462;7.338;2023-12-20T18:48:32;7.20;99.90
6879;DHT22;3478;51.462;7.338;2023-12-20T18:53:34;7.20;99.90
6879;DHT22;3478;51.462;7.338;2023-12-20T18:58:36;7.20;99.90
6879;DHT22;3478;51.462;7.338;2023-12-20T19:03:40;7.20;99.90
6879;DHT22;3478;51.462;7.338;2023-12-20T19:08:42;7.20;99.90
6879;DHT22;3478;51.462;7.338;2023-12-20T19:13:45;7.30;99.90
6879;DHT22;3478;51.462;7.338;2023-12-20T19:18:48;7.30;99.90
6879;DHT22;3478;51.462;7.338;2023-12-20T19:23:50;7.30;99.90
6879;DHT22;3478;51.462;7.338;2023-12-20T19:28:52;7.30;99.90
6879;DHT22;3478;51.462;7.338;2023-12-20T19:33:56;7.30;99.90
6879;DHT22;3478;51.462;7.338;2023-12-20T19:38:59;7.30;99.90
6879;DHT22;3478;51.462;7.338;2023-12-20T19:44:01;7.30;99.90
6879;DHT22;3478;51.462;7.338;2023-12-20T19:49:04;7.30;99.90
6879;DHT22;3478;51.462;7.338;2023-12-20T19:54:06;7.20;99.90
6879;DHT22;3478;51.462;7.338;2023-12-20T19:59:08;7.20;99.90
6879;DHT22;3478;51.462;7.338;2023-12-20T20:04:11;7.20;99.90
6879;DHT22;3478;51.462;7.338;2023-12-20T20:09:13;7.30;99.90
6879;DHT22;3478;51.462;7.338;2023-12-20T20:14:15;7.30;99.90
6879;DHT22;3478;51.462;7.338;2023-12-20T20:19:18;7.30;99.90
6879;DHT22;3478;51.462;7.338;2023-12-20T20:24:20;7.30;99.90
6879;DHT22;3478;51.462;7.338;2023-12-20T20:29:24;7.30;99.90
6879;DHT22;3478;51.462;7.338;2023-12-20T20:34:27;7.30;99.90
6879;DHT22;3478;51.462;7.338;2023-12-20T20:39:29;7.30;99.90
6879;DHT22;3478;51.462;7.338;2023-12-20T20:44:31;7.30;99.90
6879;DHT22;3478;51.462;7.338;2023-12-20T20:49:34;7.40;99.90
6879;DHT22;3478;51.462;7.338;2023-12-20T20:54:36;7.40;99.90
6879;DHT22;3478;51.462;7.338;2023-12-20T20:59:38;7.40;99.90
6879;DHT22;3478;51.462;7.338;2023-12-20T21:04:43;7.40;99.90
6879;DHT22;3478;51.462;7.338;2023-12-20T21:09:45;7.40;99.90
6879;DHT22;3478;51.462;7.338;2023-12-20T21:14:49;7.40;99.90
6879;DHT22;3478;51.462;7.338;2023-12-20T21:19:52;7.40;99.90
6879;DHT22;3478;51.462;7.338;2023-12-20T21:24:54;7.40;99.90
6879;DHT22;3478;51.462;7.338;2023-12-20T21:29:56;7.40;99.90
6879;DHT22;3478;51.462;7.338;2023-12-20T21:34:59;7.50;99.90
6879;DHT22;3478;51.462;7.338;2023-12-20T21:40:01;7.40;99.90
6879;DHT22;3478;51.462;7.338;2023-12-20T21:45:03;7.50;99.90
6879;DHT22;3478;51.462;7.338;2023-12-20T21:50:08;7.50;99.90
6879;DHT22;3478;51.462;7.338;2023-12-20T21:55:10;7.50;99.90
6879;DHT22;3478;51.462;7.338;2023-12-20T22:00:12;7.50;99.90
6879;DHT22;3478;51.462;7.338;2023-12-20T22:05:15;7.50;99.90
6879;DHT22;3478;51.462;7.338;2023-12-20T22:10:17;7.50;99.90
6879;DHT22;3478;51.462;7.338;2023-12-20T22:15:19;7.50;99.90
6879;DHT22;3478;51.462;7.338;2023-12-20T22:20:23;7.50;99.90
6879;DHT22;3478;51.462;7.338;2023-12-20T22:25:24;7.60;99.90
6879;DHT22;3478;51.462;7.338;2023-12-20T22:30:26;7.60;99.90
6879;DHT22;3478;51.462;7.338;2023-12-20T22:35:30;7.60;99.90
6879;DHT22;3478;51.462;7.338;2023-12-20T22:40:32;7.60;99.90
6879;DHT22;3478;51.462;7.338;2023-12-20T22:45:34;7.60;99.90
6879;DHT22;3478;51.462;7.338;2023-12-20T22:50:38;7.60;99.90
6879;DHT22;3478;51.462;7.338;2023-12-20T22:55:40;7.60;99.90
6879;DHT22;3478;51.462;7.338;2023-12-20T23:00:42;7.70;99.90
6879;DHT22;3478;51.462;7.338;2023-12-20T23:05:46;7.70;99.90
6879;DHT22;3478;51.462;7.338;2023-12-20T23:10:48;7.70;99.90
6879;DHT22;3478;51.462;7.338;2023-12-20T23:15:50;7.70;99.90
6879;DHT22;3478;51.462;7.338;2023-12-20T23:20:53;7.70;99.90
6879;DHT22;3478;51.462;7.338;2023-12-20T23:25:55;7.70;99.90
6879;DHT22;3478;51.462;7.338;2023-12-20T23:30:57;7.80;99.90
6879;DHT22;3478;51.462;7.338;2023-12-20T23:36:00;7.80;99.90
6879;DHT22;3478;51.462;7.338;2023-12-20T23:41:02;7.80;99.90
6879;DHT22;3478;51.462;7.338;2023-12-20T23:46:04;7.80;99.90
6879;DHT22;3478;51.462;7.338;2023-12-20T23:51:07;7.80;99.90
6879;DHT22;3478;51.462;7.338;2023-12-20T23:56:09;7.80;99.90
